Time;durP1;ratioP1;P1;durP2;ratioP2;P2;SDS_P1;SDS_P2;PMS_P1;PMS_P2;Temp;Humidity;BMP_temperature;BMP_pressure;BME280_temperature;BME280_humidity;BME280_pressure;Samples;Min_cycle;Max_cycle;Signal;HPM_P1;HPM_P2
2021/04/08 00:01:18;;;;;;;13.65;9.18;;;;;;;2.99;53.65;95108.56;5082970;28;20199;-67
2021/04/08 00:03:45;;;;;;;11.02;8.65;;;;;;;2.72;54.18;95104.44;5090060;28;20203;-67
2021/04/08 00:06:12;;;;;;;14.15;8.93;;;;;;;2.78;54.31;95108.00;5084321;28;20213;-69
2021/04/08 00:08:38;;;;;;;13.88;9.35;;;;;;;2.87;53.96;95107.59;5089601;28;20310;-67
2021/04/08 00:11:06;;;;;;;12.50;8.93;;;;;;;3.09;53.25;95106.34;5083738;28;20584;-67
2021/04/08 00:13:33;;;;;;;12.23;8.50;;;;;;;2.96;54.12;95097.81;5089883;28;20188;-69
2021/04/08 00:16:00;;;;;;;12.73;9.38;;;;;;;2.91;53.63;95098.44;5083801;28;20199;-68
2021/04/08 00:18:26;;;;;;;13.27;8.30;;;;;;;2.72;54.10;95103.66;5089196;28;20188;-68
2021/04/08 00:20:53;;;;;;;12.38;8.32;;;;;;;2.58;54.74;95095.13;5083828;28;20203;-67
2021/04/08 00:23:19;;;;;;;14.55;8.65;;;;;;;2.67;54.25;95096.50;5089697;28;20191;-69
2021/04/08 00:25:45;;;;;;;13.63;8.18;;;;;;;2.64;54.75;95096.91;5077218;28;20562;-69
2021/04/08 00:28:12;;;;;;;11.32;8.60;;;;;;;2.69;54.45;95084.16;5073358;28;20219;-69
2021/04/08 00:30:45;;;;;;;13.40;8.65;;;;;;;2.66;54.93;95094.09;5082885;28;20191;-71
2021/04/08 00:33:16;;;;;;;11.73;8.32;;;;;;;2.73;54.54;95095.69;5090863;28;20189;-67
2021/04/08 00:35:43;;;;;;;12.27;8.68;;;;;;;2.73;54.31;95095.69;5082939;28;20584;-67
2021/04/08 00:38:11;;;;;;;15.75;9.07;;;;;;;2.79;54.00;95102.63;5090659;28;20206;-68
2021/04/08 00:40:38;;;;;;;13.50;9.00;;;;;;;2.69;54.90;95096.28;5081656;28;20583;-68
2021/04/08 00:43:05;;;;;;;13.55;9.15;;;;;;;2.69;54.58;95099.66;5091344;28;20207;-68
2021/04/08 00:45:32;;;;;;;12.60;8.38;;;;;;;2.45;55.00;95102.88;5080774;28;20200;-67
2021/04/08 00:48:03;;;;;;;12.95;8.90;;;;;;;2.48;55.04;95094.72;5091665;28;20227;-68
2021/04/08 00:50:30;;;;;;;13.63;8.55;;;;;;;2.43;55.28;95102.28;5077466;28;20228;-69
2021/04/08 00:53:02;;;;;;;13.95;8.20;;;;;;;1.95;55.64;95100.91;5089892;28;20534;-67
2021/04/08 00:55:37;;;;;;;13.88;9.27;;;;;;;2.23;55.63;95098.91;5078366;28;20209;-68
2021/04/08 00:58:04;;;;;;;14.15;9.00;;;;;;;2.01;55.87;95106.06;5090952;28;20214;-66
2021/04/08 01:00:34;;;;;;;15.13;8.82;;;;;;;2.06;55.68;95097.72;5079354;28;20218;-68
2021/04/08 01:03:01;;;;;;;18.27;8.98;;;;;;;2.19;55.54;95100.28;5091073;28;20187;-69
2021/04/08 01:05:28;;;;;;;12.75;8.57;;;;;;;1.87;56.07;95091.53;5080188;28;20203;-67
2021/04/08 01:07:55;;;;;;;14.40;9.18;;;;;;;1.77;56.08;95082.59;5091128;28;20233;-69
2021/04/08 01:10:23;;;;;;;14.02;9.00;;;;;;;2.42;55.57;95092.94;5079700;28;20963;-68
2021/04/08 01:12:54;;;;;;;15.13;8.68;;;;;;;2.13;55.36;95093.34;5071698;28;20187;-67
2021/04/08 01:15:22;;;;;;;13.27;8.80;;;;;;;2.13;55.37;95092.53;5080252;28;20614;-69
2021/04/08 01:18:27;;;;;;;14.48;9.20;;;;;;;2.22;55.45;95087.00;5092194;28;20207;-70
2021/04/08 01:21:18;;;;;;;12.55;8.50;;;;;;;2.03;55.94;95091.16;5077099;28;20208;-70
2021/04/08 01:24:06;;;;;;;13.70;8.65;;;;;;;2.06;56.06;95087.38;5077851;28;20235;-69
2021/04/08 01:27:00;;;;;;;15.20;8.98;;;;;;;1.70;56.50;95092.09;5078159;28;20273;-68
2021/04/08 01:29:41;;;;;;;13.48;8.70;;;;;;;1.51;56.98;95082.53;5083569;28;20712;-68
2021/04/08 01:32:10;;;;;;;14.02;8.77;;;;;;;1.77;56.57;95092.91;5089729;28;20191;-69
2021/04/08 01:34:39;;;;;;;13.05;9.18;;;;;;;1.69;56.65;95099.06;5081898;28;20238;-69
2021/04/08 01:37:09;;;;;;;14.18;8.55;;;;;;;1.83;56.05;95092.13;5089014;28;20205;-69
2021/04/08 01:39:39;;;;;;;13.13;8.75;;;;;;;2.07;55.71;95104.47;5081940;28;20194;-67
2021/04/08 01:42:06;;;;;;;13.23;9.30;;;;;;;1.73;56.56;95107.22;5088825;28;20203;-69
2021/04/08 01:44:35;;;;;;;12.75;8.63;;;;;;;1.65;56.47;95102.22;5082192;28;20299;-68
2021/04/08 01:47:05;;;;;;;12.50;8.80;;;;;;;1.72;56.82;95098.66;5087949;28;20229;-68
2021/04/08 01:49:34;;;;;;;16.20;9.10;;;;;;;1.75;56.46;95097.50;5082372;28;20228;-68
2021/04/08 01:52:01;;;;;;;14.05;8.85;;;;;;;1.56;56.87;95103.38;5087818;28;20654;-68
2021/04/08 01:54:32;;;;;;;14.23;9.07;;;;;;;1.56;57.08;95121.47;5082945;28;20573;-68
2021/04/08 01:57:02;;;;;;;16.63;9.05;;;;;;;1.64;56.87;95118.72;5086837;28;20202;-68
2021/04/08 01:59:29;;;;;;;14.63;9.43;;;;;;;1.76;56.00;95111.97;5082377;28;20196;-70
2021/04/08 02:01:57;;;;;;;15.02;7.78;;;;;;;1.56;56.66;95109.34;5087078;28;20194;-69
2021/04/08 02:04:25;;;;;;;15.38;10.23;;;;;;;1.64;56.96;95113.56;5083747;28;20239;-69
2021/04/08 02:06:52;;;;;;;14.52;9.13;;;;;;;2.01;55.56;95110.41;5086451;28;20223;-68
2021/04/08 02:09:21;;;;;;;15.07;9.73;;;;;;;2.13;55.53;95126.16;5083736;28;20713;-70
2021/04/08 02:11:48;;;;;;;15.35;9.02;;;;;;;1.96;55.97;95130.91;5086267;28;20206;-69
2021/04/08 02:14:15;;;;;;;13.73;9.10;;;;;;;1.74;56.11;95134.63;5084400;28;20199;-69
2021/04/08 02:16:46;;;;;;;14.98;9.07;;;;;;;2.01;55.94;95128.50;5084806;28;20195;-69
2021/04/08 02:19:13;;;;;;;14.43;9.07;;;;;;;2.10;55.57;95131.72;5084989;28;20207;-68
2021/04/08 02:21:41;;;;;;;12.13;9.00;;;;;;;2.07;55.67;95130.31;5084743;28;20187;-69
2021/04/08 02:24:12;;;;;;;13.15;8.55;;;;;;;1.96;55.86;95134.28;5085160;28;20275;-68
2021/04/08 02:26:41;;;;;;;13.18;8.52;;;;;;;1.87;56.06;95132.88;5083918;28;20218;-67
2021/04/08 02:29:08;;;;;;;12.00;8.73;;;;;;;2.10;55.94;95132.50;5084871;28;20187;-68
2021/04/08 02:31:39;;;;;;;13.77;8.98;;;;;;;2.16;55.45;95138.66;5084187;28;20305;-68
2021/04/08 02:34:07;;;;;;;15.68;8.90;;;;;;;2.45;55.21;95152.00;5085017;28;20199;-69
2021/04/08 02:36:39;;;;;;;13.38;9.00;;;;;;;2.14;55.59;95141.44;5084135;28;20194;-67
2021/04/08 02:39:10;;;;;;;14.82;9.52;;;;;;;2.29;55.56;95144.66;5084847;28;20206;-69
2021/04/08 02:41:45;;;;;;;13.45;8.90;;;;;;;2.10;56.08;95137.66;5083688;28;20318;-66
2021/04/08 02:44:15;;;;;;;13.23;8.63;;;;;;;2.27;55.18;95143.25;5083965;28;20191;-68
2021/04/08 02:46:42;;;;;;;12.70;9.20;;;;;;;2.18;55.62;95152.19;5084566;28;20207;-68
2021/04/08 02:49:09;;;;;;;14.18;9.27;;;;;;;2.25;55.34;95146.03;5084235;28;20191;-69
2021/04/08 02:52:04;;;;;;;13.10;8.20;;;;;;;2.21;55.12;95146.66;5083557;28;20290;-67
2021/04/08 02:54:48;;;;;;;12.05;8.35;;;;;;;2.25;55.41;95146.03;5081178;28;20214;-67
2021/04/08 02:57:33;;;;;;;18.90;9.35;;;;;;;1.96;55.53;95148.97;5089968;28;20210;-66
2021/04/08 03:00:08;;;;;;;15.70;9.25;;;;;;;2.28;54.96;95157.78;5077396;28;20206;-69
2021/04/08 03:02:42;;;;;;;11.88;8.48;;;;;;;1.88;55.96;95159.53;5090540;28;20210;-66
2021/04/08 03:05:11;;;;;;;15.60;8.93;;;;;;;2.25;55.47;95158.16;5076925;28;20681;-66
2021/04/08 03:07:42;;;;;;;16.05;9.23;;;;;;;2.16;55.38;95160.16;5090371;28;20226;-67
2021/04/08 03:10:11;;;;;;;15.27;8.77;;;;;;;1.89;56.19;95163.69;5077300;28;20228;-68
2021/04/08 03:12:40;;;;;;;12.35;9.07;;;;;;;2.00;55.60;95161.34;5090344;28;20194;-67
2021/04/08 03:15:08;;;;;;;14.98;8.82;;;;;;;2.16;55.52;95174.84;5077375;28;20191;-68
2021/04/08 03:17:39;;;;;;;14.98;8.95;;;;;;;2.05;56.25;95184.00;5090359;28;20191;-69
2021/04/08 03:20:07;;;;;;;14.85;8.82;;;;;;;2.13;55.85;95181.22;5077358;28;21054;-68
2021/04/08 03:22:37;;;;;;;12.68;8.60;;;;;;;2.08;55.62;95172.47;5090523;28;20316;-68
2021/04/08 03:25:06;;;;;;;13.23;9.35;;;;;;;1.98;56.08;95193.50;5077124;28;20196;-68
2021/04/08 03:27:33;;;;;;;13.15;8.65;;;;;;;2.19;55.74;95205.50;5089818;28;20237;-68
2021/04/08 03:29:59;;;;;;;12.63;8.82;;;;;;;2.13;56.03;95199.31;5076908;28;20220;-70
2021/04/08 03:32:28;;;;;;;13.00;8.15;;;;;;;1.84;56.40;95213.34;5089847;28;20249;-69
2021/04/08 03:34:56;;;;;;;13.63;8.73;;;;;;;1.83;56.80;95216.94;5077408;28;20513;-68
2021/04/08 03:37:24;;;;;;;15.45;10.20;;;;;;;2.09;56.65;95216.22;5053424;28;20203;-70
2021/04/08 03:39:50;;;;;;;16.73;9.63;;;;;;;2.02;56.66;95225.75;5075832;28;20196;-69
2021/04/08 03:42:18;;;;;;;16.52;9.95;;;;;;;2.10;56.54;95240.28;5089280;28;20282;-69
2021/04/08 03:44:45;;;;;;;16.42;9.85;;;;;;;2.06;56.79;95242.47;5079128;28;20203;-69
2021/04/08 03:47:13;;;;;;;16.73;9.60;;;;;;;2.05;57.03;95246.00;5087834;28;20215;-71
2021/04/08 03:49:42;;;;;;;14.70;10.50;;;;;;;2.07;56.72;95244.03;5079574;28;20200;-70
2021/04/08 03:52:11;;;;;;;17.17;9.70;;;;;;;2.09;56.45;95247.22;5087486;28;20697;-70
2021/04/08 03:54:39;;;;;;;16.65;10.80;;;;;;;2.24;56.63;95245.28;5079779;28;20200;-69
2021/04/08 03:57:10;;;;;;;14.75;9.93;;;;;;;2.41;56.07;95256.06;5087623;28;20264;-70
2021/04/08 03:59:39;;;;;;;14.82;9.52;;;;;;;2.26;55.78;95253.66;5078753;28;20203;-68
2021/04/08 04:02:06;;;;;;;14.32;10.25;;;;;;;2.45;56.30;95259.81;5079261;28;20195;-69
2021/04/08 04:04:34;;;;;;;17.55;10.70;;;;;;;2.24;56.11;95265.97;5077181;28;20192;-69
2021/04/08 04:07:01;;;;;;;15.57;10.73;;;;;;;2.36;55.99;95274.75;5067758;28;20216;-69
2021/04/08 04:09:27;;;;;;;12.93;9.98;;;;;;;2.47;56.06;95266.41;5069164;28;20228;-68
2021/04/08 04:11:55;;;;;;;21.88;10.98;;;;;;;2.31;56.34;95271.16;5068150;28;20196;-68
2021/04/08 04:14:27;;;;;;;14.57;10.13;;;;;;;2.25;56.55;95267.56;5069864;28;20283;-68
2021/04/08 04:16:57;;;;;;;13.50;10.13;;;;;;;2.21;56.86;95261.16;5081331;28;20692;-67
2021/04/08 04:19:24;;;;;;;16.83;10.70;;;;;;;2.25;56.51;95288.22;5087004;28;20253;-69
2021/04/08 04:21:52;;;;;;;15.15;10.00;;;;;;;2.12;56.89;95275.25;5072687;28;20200;-69
2021/04/08 04:24:19;;;;;;;16.13;10.77;;;;;;;2.37;56.62;95284.09;5073179;28;20192;-69
2021/04/08 04:26:45;;;;;;;17.58;10.98;;;;;;;2.58;55.65;95291.69;5087184;28;20221;-67
2021/04/08 04:29:12;;;;;;;20.98;10.75;;;;;;;2.50;55.50;95291.09;5093048;28;20195;-69
2021/04/08 04:31:39;;;;;;;47.85;29.42;;;;;;;2.60;58.78;95312.19;5083112;28;20677;-72
2021/04/08 04:34:06;;;;;;;40.10;27.33;;;;;;;2.47;59.82;95304.41;5082396;28;20673;-72
2021/04/08 04:36:34;;;;;;;17.35;11.10;;;;;;;2.58;55.72;95325.31;5082125;28;20207;-68
2021/04/08 04:39:01;;;;;;;17.45;10.43;;;;;;;2.62;55.62;95318.78;5092902;28;20709;-67
2021/04/08 04:41:28;;;;;;;16.70;9.80;;;;;;;2.46;56.30;95320.91;5092810;28;20187;-69
2021/04/08 04:43:54;;;;;;;13.75;10.05;;;;;;;2.67;55.86;95323.34;5077958;28;20197;-67
2021/04/08 04:46:20;;;;;;;19.55;10.18;;;;;;;2.48;55.51;95319.72;5073736;28;20314;-67
2021/04/08 04:48:51;;;;;;;16.58;10.77;;;;;;;2.38;56.06;95323.66;5091824;28;20268;-69
2021/04/08 04:51:17;;;;;;;18.63;10.65;;;;;;;2.53;55.69;95332.88;5091092;28;20187;-69
2021/04/08 04:53:44;;;;;;;17.85;11.02;;;;;;;2.30;56.10;95326.44;5092754;28;20195;-69
2021/04/08 04:56:10;;;;;;;15.27;11.02;;;;;;;2.34;56.28;95297.41;5092648;28;20223;-68
2021/04/08 04:58:37;;;;;;;18.45;11.45;;;;;;;2.35;56.47;95319.69;5092772;28;20198;-69
2021/04/08 05:01:03;;;;;;;17.73;10.70;;;;;;;2.45;56.09;95319.31;5092419;28;20203;-69
2021/04/08 05:03:29;;;;;;;19.85;11.05;;;;;;;2.55;55.82;95330.91;5092669;28;20186;-70
2021/04/08 05:05:55;;;;;;;16.58;10.50;;;;;;;2.64;55.80;95334.09;5091211;28;20202;-70
2021/04/08 05:08:22;;;;;;;18.85;12.38;;;;;;;2.82;55.59;95336.91;5092417;28;20245;-68
2021/04/08 05:10:49;;;;;;;21.88;13.40;;;;;;;2.63;55.90;95333.28;5092304;28;20199;-70
2021/04/08 05:13:15;;;;;;;51.47;30.98;;;;;;;2.60;56.80;95343.22;5092309;28;20210;-71
2021/04/08 05:15:42;;;;;;;23.70;15.55;;;;;;;2.83;55.97;95339.31;5092979;28;20645;-69
2021/04/08 05:18:13;;;;;;;20.08;12.00;;;;;;;2.88;54.97;95344.69;5092282;28;20198;-69
2021/04/08 05:20:40;;;;;;;19.00;12.32;;;;;;;2.98;54.70;95347.69;5091986;28;20203;-68
2021/04/08 05:23:07;;;;;;;18.85;12.73;;;;;;;3.20;54.79;95342.31;5092024;28;20192;-71
2021/04/08 05:25:34;;;;;;;19.35;11.48;;;;;;;3.13;54.25;95331.97;5090700;28;20199;-70
2021/04/08 05:28:00;;;;;;;16.92;11.52;;;;;;;3.33;53.96;95339.72;5091906;28;20238;-71
2021/04/08 05:30:27;;;;;;;17.80;11.75;;;;;;;3.43;53.49;95355.69;5086823;28;20731;-69
2021/04/08 05:32:53;;;;;;;16.05;11.20;;;;;;;2.98;54.03;95346.88;5089241;28;20194;-70
2021/04/08 05:35:20;;;;;;;20.58;11.32;;;;;;;2.95;54.39;95347.28;5089896;28;20285;-70
2021/04/08 05:37:46;;;;;;;20.50;10.90;;;;;;;2.75;55.02;95352.44;5091720;28;20607;-67
2021/04/08 05:40:13;;;;;;;17.13;11.00;;;;;;;2.96;54.49;95360.03;5091337;28;20202;-71
2021/04/08 05:42:44;;;;;;;19.48;11.95;;;;;;;2.90;54.37;95355.63;5091807;28;20278;-69
2021/04/08 05:45:11;;;;;;;17.80;9.95;;;;;;;2.89;54.04;95348.06;5091117;28;20206;-69
2021/04/08 05:47:39;;;;;;;15.43;10.70;;;;;;;3.13;54.00;95357.06;5091712;28;20225;-70
2021/04/08 05:50:06;;;;;;;18.50;11.30;;;;;;;3.07;54.03;95353.47;5090867;28;20214;-69
2021/04/08 05:52:33;;;;;;;14.75;10.18;;;;;;;3.13;53.61;95363.03;5091159;28;20168;-69
2021/04/08 05:54:59;;;;;;;18.02;10.20;;;;;;;3.06;53.86;95367.41;5089953;28;20240;-70
2021/04/08 05:57:25;;;;;;;16.08;10.63;;;;;;;2.92;54.06;95374.34;5091463;28;20577;-67
2021/04/08 05:59:52;;;;;;;16.75;11.15;;;;;;;3.17;53.76;95376.38;5090880;28;20199;-70
2021/04/08 06:02:18;;;;;;;22.58;11.90;;;;;;;3.14;53.60;95376.78;5091230;28;20202;-70
2021/04/08 06:04:45;;;;;;;16.50;11.02;;;;;;;3.08;53.60;95388.75;5089520;28;20202;-69
2021/04/08 06:07:11;;;;;;;15.52;9.73;;;;;;;2.59;54.23;95388.22;5090683;28;20222;-69
2021/04/08 06:09:37;;;;;;;18.65;10.75;;;;;;;2.97;53.58;95387.50;5090914;28;20344;-70
2021/04/08 06:12:05;;;;;;;15.57;10.15;;;;;;;2.75;53.95;95387.88;5090253;28;20199;-68
2021/04/08 06:14:32;;;;;;;19.15;11.15;;;;;;;3.42;52.95;95392.94;5091013;28;20298;-70
2021/04/08 06:16:59;;;;;;;23.23;11.18;;;;;;;3.64;53.16;95383.97;5090725;28;20661;-70
2021/04/08 06:19:25;;;;;;;16.40;11.05;;;;;;;3.22;52.62;95394.72;5089717;28;20311;-69
2021/04/08 06:21:52;;;;;;;16.70;10.68;;;;;;;3.13;52.86;95401.88;5090578;28;20234;-70
2021/04/08 06:24:18;;;;;;;14.65;10.45;;;;;;;3.24;52.60;95385.75;5090651;28;20714;-68
2021/04/08 06:26:44;;;;;;;17.70;10.35;;;;;;;3.81;52.15;95401.47;5090536;28;20187;-69
2021/04/08 06:29:11;;;;;;;16.98;11.13;;;;;;;3.82;51.93;95399.69;5090663;28;20198;-69
2021/04/08 06:31:50;;;;;;;17.38;10.88;;;;;;;3.80;52.08;95409.47;5090442;28;20215;-70
2021/04/08 06:34:17;;;;;;;15.40;10.63;;;;;;;3.77;51.35;95415.06;5089474;28;20290;-69
2021/04/08 06:36:43;;;;;;;16.50;10.80;;;;;;;3.35;52.30;95418.84;5090578;28;20183;-69
2021/04/08 06:39:10;;;;;;;20.00;10.98;;;;;;;3.59;51.83;95414.88;5090727;28;20197;-68
2021/04/08 06:41:37;;;;;;;20.27;10.75;;;;;;;3.32;52.94;95405.50;5090084;28;20210;-69
2021/04/08 06:44:07;;;;;;;18.35;10.85;;;;;;;3.65;52.38;95411.50;5091011;28;20195;-70
2021/04/08 06:46:41;;;;;;;20.02;11.38;;;;;;;3.72;51.90;95412.28;5089432;28;20203;-68
2021/04/08 06:49:11;;;;;;;16.63;10.60;;;;;;;3.83;51.89;95425.41;5091022;28;20295;-70
2021/04/08 06:51:42;;;;;;;18.05;9.30;;;;;;;2.83;53.91;95421.31;5090057;28;20214;-69
2021/04/08 06:54:09;;;;;;;18.75;10.40;;;;;;;2.64;54.23;95433.22;5090611;28;20246;-69
2021/04/08 06:56:36;;;;;;;16.27;10.98;;;;;;;2.81;54.84;95431.09;5090110;28;20210;-70
2021/04/08 06:59:03;;;;;;;20.05;11.68;;;;;;;2.85;53.88;95412.38;5091055;28;20206;-70
2021/04/08 07:01:35;;;;;;;16.20;10.85;;;;;;;3.36;53.78;95437.78;5090381;28;20191;-70
2021/04/08 07:04:04;;;;;;;19.70;12.05;;;;;;;3.50;52.38;95439.38;5090344;28;20278;-69
2021/04/08 07:06:31;;;;;;;18.80;8.88;;;;;;;2.79;53.47;95441.59;5090368;28;20211;-70
2021/04/08 07:08:57;;;;;;;17.17;10.23;;;;;;;2.92;54.17;95439.06;5090157;28;20246;-69
2021/04/08 07:11:26;;;;;;;49.35;20.52;;;;;;;3.26;53.26;95442.53;5088815;28;20223;-69
2021/04/08 07:13:52;;;;;;;62.33;26.15;;;;;;;3.49;53.30;95442.94;5091862;28;20199;-71
2021/04/08 07:16:19;;;;;;;39.53;19.60;;;;;;;3.80;52.04;95445.75;5091422;28;20217;-71
2021/04/08 07:18:48;;;;;;;24.30;15.07;;;;;;;3.73;52.23;95450.13;5092239;28;20207;-68
2021/04/08 07:21:16;;;;;;;19.25;13.10;;;;;;;4.07;52.08;95449.91;5092439;28;20184;-70
2021/04/08 07:24:13;;;;;;;17.50;11.52;;;;;;;4.16;50.89;95450.53;5089878;28;20203;-70
2021/04/08 07:27:08;;;;;;;19.23;11.40;;;;;;;4.42;50.06;95455.63;5090934;28;20207;-70
2021/04/08 07:29:38;;;;;;;20.02;11.27;;;;;;;4.86;49.10;95456.50;5090476;28;20207;-69
2021/04/08 07:32:21;;;;;;;29.52;16.75;;;;;;;5.05;49.40;95453.00;5089755;28;20510;-71
2021/04/08 07:34:55;;;;;;;39.63;22.23;;;;;;;4.77;49.01;95460.34;5090227;28;20235;-71
2021/04/08 07:37:43;;;;;;;18.27;11.10;;;;;;;5.14;47.65;95456.97;5090335;28;20189;-70
2021/04/08 07:40:20;;;;;;;13.80;10.23;;;;;;;5.35;48.06;95458.44;5090123;28;20207;-70
2021/04/08 07:42:46;;;;;;;18.33;10.77;;;;;;;5.01;47.53;95456.25;5090377;28;20195;-67
2021/04/08 07:45:33;;;;;;;19.60;9.93;;;;;;;4.97;47.45;95455.84;5089793;28;20199;-69
2021/04/08 07:48:05;;;;;;;16.70;9.23;;;;;;;4.68;47.46;95461.56;5088570;28;20222;-69
2021/04/08 07:50:34;;;;;;;14.25;9.25;;;;;;;4.61;47.77;95463.38;5089342;28;20195;-69
2021/04/08 07:53:01;;;;;;;15.82;9.00;;;;;;;4.36;49.07;95477.22;5089399;28;20316;-67
2021/04/08 07:55:30;;;;;;;15.52;9.93;;;;;;;4.96;47.28;95466.44;5092927;28;20179;-70
2021/04/08 07:58:07;;;;;;;15.18;9.35;;;;;;;5.20;46.78;95470.91;5093749;28;20199;-69
2021/04/08 08:00:34;;;;;;;14.18;9.55;;;;;;;5.31;45.07;95465.06;5093017;28;20680;-68
2021/04/08 08:03:06;;;;;;;15.30;9.52;;;;;;;5.61;44.58;95463.47;5093727;28;20306;-68
2021/04/08 08:05:46;;;;;;;21.08;9.02;;;;;;;5.39;44.15;95474.41;5093241;28;20190;-68
2021/04/08 08:08:18;;;;;;;17.38;9.50;;;;;;;5.57;43.54;95464.09;5093317;28;20229;-70
2021/04/08 08:11:03;;;;;;;12.25;7.70;;;;;;;5.80;42.24;95467.72;5093086;28;20187;-71
2021/04/08 08:13:31;;;;;;;10.73;7.47;;;;;;;6.55;43.84;95450.28;5092304;28;20225;-73
2021/04/08 08:16:00;;;;;;;13.05;7.55;;;;;;;7.02;40.75;95462.56;5092888;28;20187;-70
2021/04/08 08:18:35;;;;;;;10.27;6.65;;;;;;;6.65;39.18;95471.41;5093062;28;20606;-70
2021/04/08 08:21:03;;;;;;;9.40;6.60;;;;;;;6.66;37.82;95473.78;5092684;28;20191;-70
2021/04/08 08:23:53;;;;;;;11.10;7.05;;;;;;;6.71;39.17;95466.13;5093831;28;20199;-71
2021/04/08 08:26:28;;;;;;;18.15;8.32;;;;;;;6.99;40.57;95463.78;5093159;28;20206;-71
2021/04/08 08:28:59;;;;;;;11.45;7.45;;;;;;;7.53;39.63;95465.50;5093172;28;20230;-71
2021/04/08 08:31:43;;;;;;;9.93;7.20;;;;;;;7.76;39.02;95460.31;5092432;28;20216;-70
2021/04/08 08:34:22;;;;;;;10.15;7.03;;;;;;;7.69;37.59;95464.03;5093336;28;20195;-70
2021/04/08 08:36:53;;;;;;;14.80;8.00;;;;;;;7.68;39.00;95457.25;5092607;28;20248;-70
2021/04/08 08:39:22;;;;;;;10.20;6.82;;;;;;;7.88;35.95;95468.19;5093097;28;20179;-70
2021/04/08 08:41:49;;;;;;;8.23;6.22;;;;;;;8.17;37.71;95465.47;5092332;28;20199;-70
2021/04/08 08:44:19;;;;;;;11.85;7.10;;;;;;;8.47;38.75;95467.22;5093122;28;20180;-70
2021/04/08 08:46:58;;;;;;;12.45;7.85;;;;;;;8.57;37.56;95468.25;5092464;28;20282;-70
2021/04/08 08:49:54;;;;;;;11.55;7.30;;;;;;;7.91;36.43;95467.72;5093140;28;20190;-71
2021/04/08 08:52:24;;;;;;;9.40;6.80;;;;;;;7.03;36.25;95480.56;5092200;28;20211;-70
2021/04/08 08:54:52;;;;;;;9.35;6.80;;;;;;;6.58;36.59;95450.66;5092651;28;20198;-70
2021/04/08 08:57:20;;;;;;;12.70;7.57;;;;;;;6.56;37.31;95473.50;5092607;28;20202;-70
2021/04/08 08:59:49;;;;;;;10.30;6.85;;;;;;;7.08;38.45;95479.91;5092524;28;20278;-70
2021/04/08 09:02:18;;;;;;;13.57;7.10;;;;;;;6.93;37.08;95480.28;5092522;28;20223;-69
2021/04/08 09:04:44;;;;;;;12.65;7.05;;;;;;;6.61;37.35;95478.03;5092593;28;20199;-71
2021/04/08 09:07:13;;;;;;;15.73;7.18;;;;;;;7.18;37.63;95482.81;5091601;28;20211;-69
2021/04/08 09:09:52;;;;;;;8.45;6.72;;;;;;;7.47;36.81;95478.59;5092193;28;20233;-69
2021/04/08 09:12:19;;;;;;;9.32;6.40;;;;;;;7.32;37.59;95483.44;5092246;28;20699;-68
2021/04/08 09:14:47;;;;;;;16.58;9.20;;;;;;;7.23;37.72;95480.31;5092210;28;20589;-69
2021/04/08 09:17:39;;;;;;;13.40;7.68;;;;;;;7.28;38.64;95483.06;5092274;28;20634;-69
2021/04/08 09:20:11;;;;;;;21.70;7.65;;;;;;;7.54;38.46;95476.69;5091924;28;20198;-71
2021/04/08 09:22:58;;;;;;;12.93;7.55;;;;;;;7.30;37.65;95477.66;5092150;28;20230;-69
2021/04/08 09:25:29;;;;;;;11.25;7.13;;;;;;;7.38;37.81;95475.53;5091809;28;20198;-70
2021/04/08 09:28:06;;;;;;;13.57;7.38;;;;;;;7.67;37.51;95479.13;5091570;28;20821;-69
2021/04/08 09:30:49;;;;;;;13.07;7.72;;;;;;;7.62;37.05;95479.00;5091327;28;20195;-70
2021/04/08 09:33:16;;;;;;;11.32;7.25;;;;;;;7.60;36.90;95475.81;5091863;28;20256;-70
2021/04/08 09:35:44;;;;;;;9.50;6.80;;;;;;;7.75;36.33;95478.81;5091630;28;20213;-69
2021/04/08 09:38:11;;;;;;;12.77;6.70;;;;;;;7.67;36.20;95479.13;5092110;28;20191;-68
2021/04/08 09:40:41;;;;;;;13.68;6.97;;;;;;;7.87;36.31;95472.59;5092155;28;20195;-68
2021/04/08 09:43:14;;;;;;;12.50;6.85;;;;;;;8.50;37.92;95472.81;5092887;28;20274;-69
2021/04/08 09:45:49;;;;;;;12.20;6.95;;;;;;;9.28;36.66;95475.72;5093396;28;20252;-69
2021/04/08 09:48:21;;;;;;;14.02;7.10;;;;;;;9.41;34.63;95466.78;5091602;28;20700;-70
2021/04/08 09:51:01;;;;;;;12.20;6.38;;;;;;;9.89;35.77;95467.91;5091353;28;20199;-69
2021/04/08 09:53:53;;;;;;;7.38;5.38;;;;;;;10.29;31.30;95462.56;5091898;28;20226;-69
2021/04/08 09:56:38;;;;;;;6.25;4.30;;;;;;;10.25;30.01;95469.31;5090817;28;20195;-69
2021/04/08 09:59:04;;;;;;;7.97;4.80;;;;;;;9.65;29.60;95463.81;5092011;28;20198;-70
2021/04/08 10:01:30;;;;;;;10.15;6.03;;;;;;;9.72;29.95;95466.31;5091349;28;20436;-70
2021/04/08 10:04:09;;;;;;;8.25;5.10;;;;;;;9.73;29.20;95462.66;5091641;28;20227;-71
2021/04/08 10:06:35;;;;;;;7.20;4.60;;;;;;;9.02;30.18;95466.56;5090978;28;20290;-70
2021/04/08 10:09:13;;;;;;;8.30;4.95;;;;;;;9.45;30.51;95460.06;5090929;28;20481;-70
2021/04/08 10:11:39;;;;;;;7.63;4.45;;;;;;;9.60;31.24;95457.72;5090735;28;20186;-70
2021/04/08 10:14:24;;;;;;;6.75;4.53;;;;;;;9.80;30.06;95463.28;5091622;28;20197;-69
2021/04/08 10:17:11;;;;;;;6.73;5.10;;;;;;;9.71;30.00;95460.25;5089906;28;20199;-70
2021/04/08 10:19:41;;;;;;;11.30;5.82;;;;;;;8.63;30.27;95472.53;5091198;28;20497;-69
2021/04/08 10:22:10;;;;;;;11.10;5.20;;;;;;;8.63;31.73;95477.75;5090392;28;20192;-69
2021/04/08 10:24:39;;;;;;;8.33;4.63;;;;;;;8.78;31.70;95475.47;5091660;28;20215;-70
2021/04/08 10:27:26;;;;;;;7.50;4.30;;;;;;;8.63;30.30;95483.00;5089084;28;20437;-69
2021/04/08 10:29:52;;;;;;;6.13;3.42;;;;;;;8.45;28.68;95479.72;5090698;28;21068;-72
2021/04/08 10:32:35;;;;;;;6.53;4.47;;;;;;;8.63;30.51;95477.75;5091135;28;20237;-69
2021/04/08 10:35:03;;;;;;;8.38;5.80;;;;;;;8.45;31.51;95475.28;5090683;28;20188;-69
2021/04/08 10:37:29;;;;;;;8.52;5.13;;;;;;;8.39;33.22;95473.59;5090538;28;20198;-69
2021/04/08 10:39:56;;;;;;;8.40;5.57;;;;;;;8.55;32.29;95470.28;5089899;28;20589;-69
2021/04/08 10:42:23;;;;;;;11.93;6.20;;;;;;;8.77;32.41;95473.91;5090666;28;20229;-71
2021/04/08 10:44:52;;;;;;;6.93;5.00;;;;;;;8.08;32.48;95473.88;5090332;28;20195;-69
2021/04/08 10:47:24;;;;;;;9.95;5.72;;;;;;;8.54;32.38;95471.31;5090683;28;20199;-69
2021/04/08 10:49:54;;;;;;;6.40;4.80;;;;;;;8.74;31.60;95469.13;5090527;28;20195;-70
2021/04/08 10:52:30;;;;;;;10.02;5.05;;;;;;;8.13;31.51;95474.00;5090599;28;20191;-69
2021/04/08 10:55:02;;;;;;;12.13;5.35;;;;;;;8.52;32.44;95470.72;5088523;28;20199;-70
2021/04/08 10:57:29;;;;;;;10.32;4.28;;;;;;;8.71;31.33;95480.03;5090411;28;20195;-71
2021/04/08 10:59:56;;;;;;;5.25;4.10;;;;;;;9.52;31.00;95471.19;5089895;28;20203;-69
2021/04/08 11:02:33;;;;;;;4.57;3.50;;;;;;;10.16;27.99;95478.59;5090113;28;20592;-69
2021/04/08 11:05:05;;;;;;;5.70;4.07;;;;;;;10.25;29.35;95469.31;5089786;28;20195;-67
2021/04/08 11:07:40;;;;;;;7.90;5.07;;;;;;;9.83;29.46;95468.06;5090204;28;20547;-70
2021/04/08 11:10:15;;;;;;;7.40;5.10;;;;;;;9.43;29.99;95476.00;5089930;28;20494;-68
2021/04/08 11:12:42;;;;;;;9.50;6.67;;;;;;;9.28;30.33;95474.91;5089903;28;20437;-69
2021/04/08 11:15:11;;;;;;;8.77;5.65;;;;;;;9.02;31.46;95482.25;5088688;28;20445;-70
2021/04/08 11:17:47;;;;;;;8.53;5.33;;;;;;;9.33;30.95;95482.84;5090363;28;20565;-69
2021/04/08 11:20:15;;;;;;;6.70;5.22;;;;;;;9.20;30.94;95474.25;5090192;28;20432;-69
2021/04/08 11:22:45;;;;;;;8.60;4.90;;;;;;;9.16;31.61;95483.56;5090538;28;20203;-70
2021/04/08 11:25:14;;;;;;;5.97;4.53;;;;;;;9.78;29.27;95481.06;5089863;28;20642;-69
2021/04/08 11:27:44;;;;;;;7.90;4.17;;;;;;;11.56;29.63;95460.47;5091232;28;20716;-69
2021/04/08 11:30:21;;;;;;;5.03;3.97;;;;;;;12.24;25.85;95460.59;5094144;28;20424;-68
2021/04/08 11:32:49;;;;;;;9.03;5.03;;;;;;;11.99;25.38;95463.00;5094459;28;20452;-70
2021/04/08 11:35:27;;;;;;;6.90;4.30;;;;;;;11.91;26.37;95445.91;5093837;28;20441;-69
2021/04/08 11:38:17;;;;;;;8.23;4.40;;;;;;;12.80;27.59;95459.13;5094076;28;20517;-69
2021/04/08 11:40:48;;;;;;;10.50;5.13;;;;;;;12.06;28.23;95456.50;5093735;28;20456;-70
2021/04/08 11:43:20;;;;;;;9.10;4.63;;;;;;;11.77;27.36;95460.44;5093990;28;20443;-69
2021/04/08 11:45:48;;;;;;;5.97;4.30;;;;;;;11.40;27.60;95458.75;5094016;28;20821;-69
2021/04/08 11:48:15;;;;;;;6.80;4.90;;;;;;;11.12;28.16;95457.91;5093781;28;20854;-68